sensor_id;sensor_type;location;lat;lon;timestamp;pressure;altitude;pressure_sealevel;temperature;humidity
30073;BME280;16897;52.422;13.678;2023-01-13T00:02:02;100121.78;;;12.23;62.32
30073;BME280;16897;52.422;13.678;2023-01-13T00:06:05;100107.16;;;12.21;62.24
30073;BME280;16897;52.422;13.678;2023-01-13T00:10:10;100119.91;;;12.25;62.41
30073;BME280;16897;52.422;13.678;2023-01-13T00:14:12;100083.13;;;12.03;62.24
30073;BME280;16897;52.422;13.678;2023-01-13T00:18:14;100125.31;;;12.35;62.49
30073;BME280;16897;52.422;13.678;2023-01-13T00:22:16;100131.38;;;12.35;62.39
30073;BME280;16897;52.422;13.678;2023-01-13T00:26:22;100092.69;;;12.15;62.44
30073;BME280;16897;52.422;13.678;2023-01-13T00:30:24;100117.22;;;12.38;62.49
30073;BME280;16897;52.422;13.678;2023-01-13T00:34:26;100119.84;;;12.38;62.44
30073;BME280;16897;52.422;13.678;2023-01-13T00:38:29;100119.25;;;12.34;62.42
30073;BME280;16897;52.422;13.678;2023-01-13T00:42:32;100039.63;;;11.89;62.50
30073;BME280;16897;52.422;13.678;2023-01-13T00:46:52;100109.59;;;12.35;62.54
30073;BME280;16897;52.422;13.678;2023-01-13T00:50:59;100101.84;;;12.33;62.44
30073;BME280;16897;52.422;13.678;2023-01-13T00:55:01;100108.56;;;12.37;62.48
30073;BME280;16897;52.422;13.678;2023-01-13T00:59:03;100095.91;;;12.31;62.47
30073;BME280;16897;52.422;13.678;2023-01-13T01:03:05;100104.13;;;12.38;62.46
30073;BME280;16897;52.422;13.678;2023-01-13T01:07:12;100110.81;;;12.42;62.47
30073;BME280;16897;52.422;13.678;2023-01-13T01:11:21;100088.25;;;12.28;62.42
30073;BME280;16897;52.422;13.678;2023-01-13T01:15:24;100124.53;;;12.46;62.57
30073;BME280;16897;52.422;13.678;2023-01-13T01:19:25;100102.69;;;12.34;62.51
30073;BME280;16897;52.422;13.678;2023-01-13T01:23:28;100068.66;;;12.10;62.53
30073;BME280;16897;52.422;13.678;2023-01-13T01:27:30;100087.75;;;12.23;62.43
30073;BME280;16897;52.422;13.678;2023-01-13T01:31:32;100114.06;;;12.46;62.43
30073;BME280;16897;52.422;13.678;2023-01-13T01:35:38;100090.03;;;12.28;62.35
30073;BME280;16897;52.422;13.678;2023-01-13T01:39:41;100105.16;;;12.48;62.52
30073;BME280;16897;52.422;13.678;2023-01-13T01:48:07;100110.16;;;12.51;62.42
30073;BME280;16897;52.422;13.678;2023-01-13T01:52:35;100076.31;;;12.37;62.44
30073;BME280;16897;52.422;13.678;2023-01-13T01:56:38;100095.72;;;12.46;62.47
30073;BME280;16897;52.422;13.678;2023-01-13T02:00:42;100107.22;;;12.56;62.43
30073;BME280;16897;52.422;13.678;2023-01-13T02:04:50;100086.00;;;12.48;62.42
30073;BME280;16897;52.422;13.678;2023-01-13T02:08:52;100048.06;;;12.29;62.41
30073;BME280;16897;52.422;13.678;2023-01-13T02:12:58;100085.41;;;12.55;62.34
30073;BME280;16897;52.422;13.678;2023-01-13T02:30:42;100081.72;;;12.58;62.30
30073;BME280;16897;52.422;13.678;2023-01-13T02:39:32;100060.06;;;12.56;62.46
30073;BME280;16897;52.422;13.678;2023-01-13T02:43:38;100057.09;;;12.60;62.31
30073;BME280;16897;52.422;13.678;2023-01-13T02:48:03;100072.81;;;12.60;62.33
30073;BME280;16897;52.422;13.678;2023-01-13T02:52:57;100070.91;;;12.62;62.35
30073;BME280;16897;52.422;13.678;2023-01-13T02:57:00;100062.47;;;12.59;62.19
30073;BME280;16897;52.422;13.678;2023-01-13T03:01:02;100072.25;;;12.68;62.21
30073;BME280;16897;52.422;13.678;2023-01-13T03:05:06;100051.25;;;12.57;62.26
30073;BME280;16897;52.422;13.678;2023-01-13T03:09:27;100062.94;;;12.64;62.30
30073;BME280;16897;52.422;13.678;2023-01-13T03:22:59;100067.72;;;12.70;62.34
30073;BME280;16897;52.422;13.678;2023-01-13T03:27:10;100054.38;;;12.62;62.22
30073;BME280;16897;52.422;13.678;2023-01-13T03:31:20;99979.81;;;12.20;62.10
30073;BME280;16897;52.422;13.678;2023-01-13T03:35:35;100023.41;;;12.56;61.89
30073;BME280;16897;52.422;13.678;2023-01-13T03:39:46;100028.41;;;12.59;62.17
30073;BME280;16897;52.422;13.678;2023-01-13T03:45:08;100055.59;;;12.69;62.07
30073;BME280;16897;52.422;13.678;2023-01-13T03:48:40;100021.34;;;12.48;62.26
30073;BME280;16897;52.422;13.678;2023-01-13T03:52:57;100026.91;;;12.44;62.21
30073;BME280;16897;52.422;13.678;2023-01-13T03:57:08;100042.22;;;12.61;62.06
30073;BME280;16897;52.422;13.678;2023-01-13T04:05:27;100002.84;;;12.38;62.18
30073;BME280;16897;52.422;13.678;2023-01-13T04:13:42;100060.47;;;12.74;62.02
30073;BME280;16897;52.422;13.678;2023-01-13T04:17:45;100029.97;;;12.61;62.09
30073;BME280;16897;52.422;13.678;2023-01-13T04:21:47;100003.13;;;12.47;62.09
30073;BME280;16897;52.422;13.678;2023-01-13T04:25:50;100051.78;;;12.73;62.10
30073;BME280;16897;52.422;13.678;2023-01-13T04:29:51;100029.97;;;12.61;61.99
30073;BME280;16897;52.422;13.678;2023-01-13T04:33:53;100037.00;;;12.72;62.06
30073;BME280;16897;52.422;13.678;2023-01-13T04:37:55;100044.00;;;12.72;61.99
30073;BME280;16897;52.422;13.678;2023-01-13T04:41:57;100048.19;;;12.74;61.94
30073;BME280;16897;52.422;13.678;2023-01-13T04:45:59;100052.84;;;12.71;62.06
30073;BME280;16897;52.422;13.678;2023-01-13T04:50:01;100039.59;;;12.61;61.96
30073;BME280;16897;52.422;13.678;2023-01-13T04:54:03;99995.13;;;12.37;61.90
30073;BME280;16897;52.422;13.678;2023-01-13T04:58:07;100059.13;;;12.68;61.95
30073;BME280;16897;52.422;13.678;2023-01-13T05:02:09;100049.94;;;12.62;61.91
30073;BME280;16897;52.422;13.678;2023-01-13T05:06:15;100069.63;;;12.68;61.89
30073;BME280;16897;52.422;13.678;2023-01-13T05:10:16;100074.53;;;12.73;61.86
30073;BME280;16897;52.422;13.678;2023-01-13T05:14:18;100057.09;;;12.60;61.94
30073;BME280;16897;52.422;13.678;2023-01-13T05:18:38;100076.41;;;12.71;62.00
30073;BME280;16897;52.422;13.678;2023-01-13T05:22:40;100011.28;;;12.31;61.89
30073;BME280;16897;52.422;13.678;2023-01-13T05:27:01;100084.75;;;12.76;61.81
30073;BME280;16897;52.422;13.678;2023-01-13T05:31:02;100051.28;;;12.68;61.83
30073;BME280;16897;52.422;13.678;2023-01-13T05:35:04;100058.66;;;12.74;61.87
30073;BME280;16897;52.422;13.678;2023-01-13T05:39:06;100060.03;;;12.80;61.82
30073;BME280;16897;52.422;13.678;2023-01-13T05:43:18;100007.63;;;12.45;61.70
30073;BME280;16897;52.422;13.678;2023-01-13T05:47:20;100049.50;;;12.69;61.91
30073;BME280;16897;52.422;13.678;2023-01-13T05:51:22;100042.22;;;12.61;61.70
30073;BME280;16897;52.422;13.678;2023-01-13T05:55:26;100014.78;;;12.43;61.74
30073;BME280;16897;52.422;13.678;2023-01-13T05:59:28;100074.78;;;12.81;61.76
30073;BME280;16897;52.422;13.678;2023-01-13T06:03:31;100077.72;;;12.76;61.83
30073;BME280;16897;52.422;13.678;2023-01-13T06:07:32;100059.69;;;12.60;61.79
30073;BME280;16897;52.422;13.678;2023-01-13T06:11:34;100065.09;;;12.70;61.79
30073;BME280;16897;52.422;13.678;2023-01-13T06:15:35;100088.47;;;12.84;61.71
30073;BME280;16897;52.422;13.678;2023-01-13T06:19:38;100065.84;;;12.72;61.69
30073;BME280;16897;52.422;13.678;2023-01-13T06:23:39;100081.31;;;12.75;61.79
30073;BME280;16897;52.422;13.678;2023-01-13T06:27:41;100081.56;;;12.72;61.74
30073;BME280;16897;52.422;13.678;2023-01-13T06:31:43;100085.94;;;12.72;61.73
30073;BME280;16897;52.422;13.678;2023-01-13T06:35:52;100086.56;;;12.75;61.74
30073;BME280;16897;52.422;13.678;2023-01-13T06:39:58;100096.53;;;12.70;61.56
30073;BME280;16897;52.422;13.678;2023-01-13T06:44:01;100113.59;;;12.76;61.79
30073;BME280;16897;52.422;13.678;2023-01-13T06:48:03;100102.16;;;12.77;61.87
30073;BME280;16897;52.422;13.678;2023-01-13T06:52:05;100085.34;;;12.68;61.81
30073;BME280;16897;52.422;13.678;2023-01-13T06:56:06;100119.00;;;12.86;61.60
30073;BME280;16897;52.422;13.678;2023-01-13T07:00:12;100109.91;;;12.78;61.70
30073;BME280;16897;52.422;13.678;2023-01-13T07:04:14;100089.22;;;12.87;61.64
30073;BME280;16897;52.422;13.678;2023-01-13T07:08:16;100061.00;;;12.55;61.65
30073;BME280;16897;52.422;13.678;2023-01-13T07:12:18;100100.59;;;12.74;61.75
30073;BME280;16897;52.422;13.678;2023-01-13T07:16:19;100106.78;;;12.73;61.64
30073;BME280;16897;52.422;13.678;2023-01-13T07:20:21;100114.19;;;12.79;61.72
30073;BME280;16897;52.422;13.678;2023-01-13T07:24:23;100109.63;;;12.70;61.64
30073;BME280;16897;52.422;13.678;2023-01-13T07:28:27;100103.56;;;12.70;61.80
30073;BME280;16897;52.422;13.678;2023-01-13T07:32:33;100096.06;;;12.76;61.63
30073;BME280;16897;52.422;13.678;2023-01-13T07:36:35;100075.88;;;12.54;61.70
30073;BME280;16897;52.422;13.678;2023-01-13T07:40:38;100102.50;;;12.72;61.73
30073;BME280;16897;52.422;13.678;2023-01-13T07:44:40;100096.81;;;12.78;61.64
30073;BME280;16897;52.422;13.678;2023-01-13T07:48:42;100060.50;;;12.50;61.51
30073;BME280;16897;52.422;13.678;2023-01-13T07:52:44;100093.91;;;12.70;61.51
30073;BME280;16897;52.422;13.678;2023-01-13T07:56:46;100102.50;;;12.72;61.68
30073;BME280;16897;52.422;13.678;2023-01-13T08:00:47;100102.94;;;12.66;61.48
30073;BME280;16897;52.422;13.678;2023-01-13T08:04:49;100085.84;;;12.49;61.48
30073;BME280;16897;52.422;13.678;2023-01-13T08:08:51;100107.22;;;12.56;61.57
30073;BME280;16897;52.422;13.678;2023-01-13T08:12:52;100122.78;;;12.57;61.55
30073;BME280;16897;52.422;13.678;2023-01-13T08:17:13;100133.97;;;12.48;61.51
30073;BME280;16897;52.422;13.678;2023-01-13T08:21:14;100154.56;;;12.53;61.58
30073;BME280;16897;52.422;13.678;2023-01-13T08:25:16;100153.03;;;12.50;61.44
30073;BME280;16897;52.422;13.678;2023-01-13T08:29:18;100158.13;;;12.52;61.46
30073;BME280;16897;52.422;13.678;2023-01-13T08:33:20;100146.66;;;12.42;61.54
30073;BME280;16897;52.422;13.678;2023-01-13T08:37:22;100155.56;;;12.39;61.47
30073;BME280;16897;52.422;13.678;2023-01-13T08:41:24;100176.78;;;12.47;61.46
30073;BME280;16897;52.422;13.678;2023-01-13T08:45:45;100148.75;;;12.36;61.46
30073;BME280;16897;52.422;13.678;2023-01-13T08:49:46;100116.13;;;12.29;61.48
30073;BME280;16897;52.422;13.678;2023-01-13T08:53:49;100154.28;;;12.45;61.66
30073;BME280;16897;52.422;13.678;2023-01-13T08:57:51;100169.38;;;12.41;61.54
30073;BME280;16897;52.422;13.678;2023-01-13T09:01:52;100178.28;;;12.38;61.48
30073;BME280;16897;52.422;13.678;2023-01-13T09:05:54;100179.75;;;12.43;61.65
30073;BME280;16897;52.422;13.678;2023-01-13T09:09:56;100177.38;;;12.39;61.49
30073;BME280;16897;52.422;13.678;2023-01-13T09:13:57;100161.16;;;12.22;61.52
30073;BME280;16897;52.422;13.678;2023-01-13T09:17:59;100186.66;;;12.44;61.53
30073;BME280;16897;52.422;13.678;2023-01-13T09:22:03;100130.69;;;12.45;61.45
30073;BME280;16897;52.422;13.678;2023-01-13T09:26:05;100089.50;;;12.35;61.54
30073;BME280;16897;52.422;13.678;2023-01-13T09:30:07;100094.03;;;12.45;61.51
30073;BME280;16897;52.422;13.678;2023-01-13T09:34:19;100162.06;;;12.33;61.56
30073;BME280;16897;52.422;13.678;2023-01-13T09:38:39;100137.13;;;12.40;61.62
30073;BME280;16897;52.422;13.678;2023-01-13T09:42:57;100137.44;;;12.36;61.42
30073;BME280;16897;52.422;13.678;2023-01-13T09:47:45;100154.34;;;12.32;61.45
30073;BME280;16897;52.422;13.678;2023-01-13T09:52:03;100144.91;;;12.29;61.43
30073;BME280;16897;52.422;13.678;2023-01-13T09:56:11;100159.44;;;12.33;61.62
30073;BME280;16897;52.422;13.678;2023-01-13T10:00:21;100138.44;;;12.22;61.51
30073;BME280;16897;52.422;13.678;2023-01-13T10:04:24;100142.63;;;12.25;61.37
30073;BME280;16897;52.422;13.678;2023-01-13T10:08:43;100151.44;;;12.24;61.41
30073;BME280;16897;52.422;13.678;2023-01-13T10:12:46;100155.41;;;12.29;61.46
30073;BME280;16897;52.422;13.678;2023-01-13T10:17:20;100147.47;;;12.18;61.45
30073;BME280;16897;52.422;13.678;2023-01-13T10:26:20;100167.84;;;12.26;61.42
30073;BME280;16897;52.422;13.678;2023-01-13T10:30:41;100162.84;;;12.23;61.25
30073;BME280;16897;52.422;13.678;2023-01-13T10:34:49;100157.44;;;12.13;61.34
30073;BME280;16897;52.422;13.678;2023-01-13T10:38:53;100169.13;;;12.20;61.29
30073;BME280;16897;52.422;13.678;2023-01-13T10:43:04;100167.56;;;12.17;61.25
30073;BME280;16897;52.422;13.678;2023-01-13T10:55:40;100154.31;;;12.08;61.23
30073;BME280;16897;52.422;13.678;2023-01-13T10:59:42;100160.28;;;12.10;61.18
30073;BME280;16897;52.422;13.678;2023-01-13T11:03:43;100157.13;;;12.05;61.16
30073;BME280;16897;52.422;13.678;2023-01-13T11:07:50;100164.88;;;12.06;61.24
30073;BME280;16897;52.422;13.678;2023-01-13T11:11:58;100162.16;;;12.08;61.28
30073;BME280;16897;52.422;13.678;2023-01-13T11:16:13;100162.88;;;12.10;61.06
30073;BME280;16897;52.422;13.678;2023-01-13T11:20:29;100170.00;;;12.08;61.24
30073;BME280;16897;52.422;13.678;2023-01-13T11:25:02;100173.53;;;12.07;61.10
30073;BME280;16897;52.422;13.678;2023-01-13T11:33:56;100180.78;;;12.16;61.17
30073;BME280;16897;52.422;13.678;2023-01-13T11:46:49;100166.22;;;12.12;61.28
30073;BME280;16897;52.422;13.678;2023-01-13T12:00:40;100183.25;;;12.17;60.88
30073;BME280;16897;52.422;13.678;2023-01-13T12:05:08;100170.41;;;12.14;60.95
30073;BME280;16897;52.422;13.678;2023-01-13T12:09:54;100186.41;;;12.23;60.91
30073;BME280;16897;52.422;13.678;2023-01-13T12:22:39;100172.75;;;12.30;60.88
30073;BME280;16897;52.422;13.678;2023-01-13T12:26:51;100171.72;;;12.33;60.80
30073;BME280;16897;52.422;13.678;2023-01-13T12:31:00;100159.28;;;12.24;60.91
30073;BME280;16897;52.422;13.678;2023-01-13T12:43:46;100188.75;;;12.38;60.64
30073;BME280;16897;52.422;13.678;2023-01-13T12:53:31;100173.72;;;12.29;60.64
30073;BME280;16897;52.422;13.678;2023-01-13T12:57:35;100183.53;;;12.38;60.59
30073;BME280;16897;52.422;13.678;2023-01-13T13:01:37;100197.13;;;12.44;60.49
30073;BME280;16897;52.422;13.678;2023-01-13T13:10:53;100190.31;;;12.41;60.55
30073;BME280;16897;52.422;13.678;2023-01-13T13:18:41;100208.63;;;12.54;60.42
30073;BME280;16897;52.422;13.678;2023-01-13T13:22:43;100214.09;;;12.51;60.40
30073;BME280;16897;52.422;13.678;2023-01-13T13:26:50;100200.47;;;12.46;60.16
30073;BME280;16897;52.422;13.678;2023-01-13T13:31:09;100209.78;;;12.50;60.17
30073;BME280;16897;52.422;13.678;2023-01-13T13:39:52;100195.97;;;12.48;60.06
30073;BME280;16897;52.422;13.678;2023-01-13T13:44:32;100207.28;;;12.48;59.96
30073;BME280;16897;52.422;13.678;2023-01-13T13:48:55;100213.44;;;12.47;60.04
30073;BME280;16897;52.422;13.678;2023-01-13T13:53:03;100234.22;;;12.50;59.98
30073;BME280;16897;52.422;13.678;2023-01-13T13:57:32;100232.50;;;12.49;59.81
30073;BME280;16897;52.422;13.678;2023-01-13T14:01:39;100236.47;;;12.55;59.97
30073;BME280;16897;52.422;13.678;2023-01-13T14:05:54;100219.97;;;12.42;59.86
30073;BME280;16897;52.422;13.678;2023-01-13T14:09:56;100224.28;;;12.43;59.83
30073;BME280;16897;52.422;13.678;2023-01-13T14:14:12;100223.22;;;12.45;59.63
30073;BME280;16897;52.422;13.678;2023-01-13T14:18:18;100181.06;;;12.24;59.70
30073;BME280;16897;52.422;13.678;2023-01-13T14:22:21;100226.44;;;12.49;59.78
30073;BME280;16897;52.422;13.678;2023-01-13T14:26:29;100219.25;;;12.39;59.58
30073;BME280;16897;52.422;13.678;2023-01-13T14:30:32;100238.72;;;12.48;59.52
30073;BME280;16897;52.422;13.678;2023-01-13T14:34:34;100235.28;;;12.35;59.41
30073;BME280;16897;52.422;13.678;2023-01-13T14:38:37;100201.19;;;12.11;59.36
30073;BME280;16897;52.422;13.678;2023-01-13T14:42:38;100252.78;;;12.34;59.35
30073;BME280;16897;52.422;13.678;2023-01-13T14:46:43;100247.41;;;12.36;59.54
30073;BME280;16897;52.422;13.678;2023-01-13T14:50:45;100257.91;;;12.36;59.33
30073;BME280;16897;52.422;13.678;2023-01-13T14:59:33;100255.63;;;12.31;59.21
30073;BME280;16897;52.422;13.678;2023-01-13T15:03:39;100253.19;;;12.28;59.42
30073;BME280;16897;52.422;13.678;2023-01-13T15:16:29;100251.44;;;12.16;59.07
30073;BME280;16897;52.422;13.678;2023-01-13T15:20:32;100269.34;;;12.22;59.00
30073;BME280;16897;52.422;13.678;2023-01-13T15:24:33;100268.19;;;12.13;59.06
30073;BME280;16897;52.422;13.678;2023-01-13T15:28:35;100277.63;;;12.16;58.96
30073;BME280;16897;52.422;13.678;2023-01-13T15:32:38;100265.88;;;12.09;59.07
30073;BME280;16897;52.422;13.678;2023-01-13T15:36:39;100260.34;;;12.01;58.97
30073;BME280;16897;52.422;13.678;2023-01-13T15:40:42;100259.41;;;12.02;58.94
30073;BME280;16897;52.422;13.678;2023-01-13T15:44:43;100290.19;;;12.11;58.67
30073;BME280;16897;52.422;13.678;2023-01-13T15:53:22;100268.84;;;11.91;58.84
30073;BME280;16897;52.422;13.678;2023-01-13T15:57:30;100284.53;;;11.91;58.74
30073;BME280;16897;52.422;13.678;2023-01-13T16:01:33;100257.06;;;11.71;58.57
30073;BME280;16897;52.422;13.678;2023-01-13T16:05:34;100296.44;;;11.83;58.49
30073;BME280;16897;52.422;13.678;2023-01-13T16:09:36;100305.19;;;11.82;58.48
30073;BME280;16897;52.422;13.678;2023-01-13T16:13:37;100309.81;;;11.78;58.49
30073;BME280;16897;52.422;13.678;2023-01-13T16:17:39;100314.81;;;11.68;58.57
30073;BME280;16897;52.422;13.678;2023-01-13T16:21:42;100315.00;;;11.65;58.62
30073;BME280;16897;52.422;13.678;2023-01-13T16:25:47;100323.69;;;11.66;58.38
30073;BME280;16897;52.422;13.678;2023-01-13T16:29:50;100314.78;;;11.56;58.42
30073;BME280;16897;52.422;13.678;2023-01-13T16:33:52;100325.22;;;11.56;58.54
30073;BME280;16897;52.422;13.678;2023-01-13T16:37:55;100327.13;;;11.54;58.44
30073;BME280;16897;52.422;13.678;2023-01-13T16:41:58;100294.75;;;11.29;58.51
30073;BME280;16897;52.422;13.678;2023-01-13T16:46:00;100303.63;;;11.26;58.55
30073;BME280;16897;52.422;13.678;2023-01-13T16:50:02;100315.66;;;11.29;58.42
30073;BME280;16897;52.422;13.678;2023-01-13T16:54:04;100309.22;;;11.20;58.61
30073;BME280;16897;52.422;13.678;2023-01-13T16:58:14;100370.94;;;11.50;58.54
30073;BME280;16897;52.422;13.678;2023-01-13T17:02:16;100373.88;;;11.45;58.46
30073;BME280;16897;52.422;13.678;2023-01-13T17:06:28;100378.75;;;11.37;58.69
30073;BME280;16897;52.422;13.678;2023-01-13T17:10:30;100387.13;;;11.42;58.63
30073;BME280;16897;52.422;13.678;2023-01-13T17:14:32;100369.06;;;11.25;58.71
30073;BME280;16897;52.422;13.678;2023-01-13T17:18:34;100352.28;;;11.15;58.66
30073;BME280;16897;52.422;13.678;2023-01-13T17:22:35;100372.91;;;11.19;58.84
30073;BME280;16897;52.422;13.678;2023-01-13T17:26:42;100384.94;;;11.22;58.90
30073;BME280;16897;52.422;13.678;2023-01-13T17:30:47;100385.88;;;11.21;58.90
30073;BME280;16897;52.422;13.678;2023-01-13T17:34:49;100342.09;;;10.83;58.70
30073;BME280;16897;52.422;13.678;2023-01-13T17:38:52;100380.78;;;11.05;58.99
30073;BME280;16897;52.422;13.678;2023-01-13T17:42:54;100413.13;;;11.17;58.87
30073;BME280;16897;52.422;13.678;2023-01-13T17:46:57;100415.75;;;11.17;59.05
30073;BME280;16897;52.422;13.678;2023-01-13T17:50:58;100417.63;;;11.15;58.83
30073;BME280;16897;52.422;13.678;2023-01-13T17:55:00;100402.59;;;11.04;58.97
30073;BME280;16897;52.422;13.678;2023-01-13T17:59:02;100368.88;;;10.87;59.02
30073;BME280;16897;52.422;13.678;2023-01-13T18:03:04;100396.81;;;10.99;58.82
30073;BME280;16897;52.422;13.678;2023-01-13T18:07:05;100393.56;;;10.95;58.86
30073;BME280;16897;52.422;13.678;2023-01-13T18:11:07;100408.13;;;10.99;58.90
30073;BME280;16897;52.422;13.678;2023-01-13T18:15:09;100413.81;;;11.06;58.81
30073;BME280;16897;52.422;13.678;2023-01-13T18:19:10;100415.78;;;11.02;59.14
30073;BME280;16897;52.422;13.678;2023-01-13T18:23:31;100360.56;;;10.66;58.84
30073;BME280;16897;52.422;13.678;2023-01-13T18:27:51;100429.59;;;11.04;58.99
30073;BME280;16897;52.422;13.678;2023-01-13T18:31:53;100436.75;;;11.01;59.12
30073;BME280;16897;52.422;13.678;2023-01-13T18:35:55;100426.78;;;10.93;59.09
30073;BME280;16897;52.422;13.678;2023-01-13T18:39:57;100377.06;;;10.66;59.01
30073;BME280;16897;52.422;13.678;2023-01-13T18:43:58;100449.44;;;11.07;59.01
30073;BME280;16897;52.422;13.678;2023-01-13T18:48:02;100408.91;;;10.73;58.91
30073;BME280;16897;52.422;13.678;2023-01-13T18:52:04;100452.56;;;10.99;58.93
30073;BME280;16897;52.422;13.678;2023-01-13T18:56:10;100457.28;;;10.93;58.93
30073;BME280;16897;52.422;13.678;2023-01-13T19:00:16;100458.63;;;11.00;59.03
30073;BME280;16897;52.422;13.678;2023-01-13T19:04:19;100456.47;;;10.92;58.77
30073;BME280;16897;52.422;13.678;2023-01-13T19:08:21;100487.91;;;11.05;58.97
30073;BME280;16897;52.422;13.678;2023-01-13T19:12:23;100468.38;;;10.96;58.93
30073;BME280;16897;52.422;13.678;2023-01-13T19:16:26;100479.72;;;10.97;58.95
30073;BME280;16897;52.422;13.678;2023-01-13T19:20:28;100486.41;;;11.01;58.73
30073;BME280;16897;52.422;13.678;2023-01-13T19:24:29;100485.00;;;10.95;58.96
30073;BME280;16897;52.422;13.678;2023-01-13T19:28:31;100494.34;;;10.99;58.91
30073;BME280;16897;52.422;13.678;2023-01-13T19:32:33;100519.16;;;11.06;58.98
30073;BME280;16897;52.422;13.678;2023-01-13T19:36:35;100521.97;;;11.03;59.02
30073;BME280;16897;52.422;13.678;2023-01-13T19:40:36;100536.53;;;11.07;58.79
30073;BME280;16897;52.422;13.678;2023-01-13T19:44:38;100517.31;;;10.94;58.91
30073;BME280;16897;52.422;13.678;2023-01-13T19:48:58;100525.53;;;11.02;58.71
30073;BME280;16897;52.422;13.678;2023-01-13T19:53:00;100487.31;;;10.71;58.84
30073;BME280;16897;52.422;13.678;2023-01-13T19:57:02;100467.25;;;10.72;58.95
30073;BME280;16897;52.422;13.678;2023-01-13T20:01:05;100484.34;;;10.77;58.90
30073;BME280;16897;52.422;13.678;2023-01-13T20:05:10;100531.22;;;11.09;58.81
30073;BME280;16897;52.422;13.678;2023-01-13T20:09:13;100530.00;;;11.00;58.80
30073;BME280;16897;52.422;13.678;2023-01-13T20:13:15;100536.16;;;10.99;58.71
30073;BME280;16897;52.422;13.678;2023-01-13T20:17:19;100541.28;;;11.01;58.83
30073;BME280;16897;52.422;13.678;2023-01-13T20:21:22;100552.69;;;11.00;58.87
30073;BME280;16897;52.422;13.678;2023-01-13T20:25:25;100548.47;;;10.97;58.66
30073;BME280;16897;52.422;13.678;2023-01-13T20:29:29;100552.94;;;10.95;58.59
30073;BME280;16897;52.422;13.678;2023-01-13T20:33:31;100575.06;;;11.04;58.75
30073;BME280;16897;52.422;13.678;2023-01-13T20:37:35;100535.16;;;10.72;58.77
30073;BME280;16897;52.422;13.678;2023-01-13T20:41:37;100575.25;;;11.01;58.77
30073;BME280;16897;52.422;13.678;2023-01-13T20:45:57;100563.13;;;10.85;58.67
30073;BME280;16897;52.422;13.678;2023-01-13T20:49:59;100593.81;;;10.96;58.75
30073;BME280;16897;52.422;13.678;2023-01-13T20:54:00;100599.97;;;10.95;58.55
30073;BME280;16897;52.422;13.678;2023-01-13T20:58:02;100596.41;;;10.96;58.73
30073;BME280;16897;52.422;13.678;2023-01-13T21:02:06;100587.28;;;10.89;58.81
30073;BME280;16897;52.422;13.678;2023-01-13T21:06:10;100592.31;;;10.92;58.68
30073;BME280;16897;52.422;13.678;2023-01-13T21:10:12;100597.28;;;10.97;58.75
30073;BME280;16897;52.422;13.678;2023-01-13T21:14:22;100558.66;;;10.72;58.67
30073;BME280;16897;52.422;13.678;2023-01-13T21:18:43;100599.22;;;10.93;58.57
30073;BME280;16897;52.422;13.678;2023-01-13T21:23:04;100563.75;;;10.75;58.77
30073;BME280;16897;52.422;13.678;2023-01-13T21:27:06;100592.00;;;10.82;58.67
30073;BME280;16897;52.422;13.678;2023-01-13T21:31:10;100577.63;;;10.75;58.63
30073;BME280;16897;52.422;13.678;2023-01-13T21:35:12;100562.84;;;10.60;58.71
30073;BME280;16897;52.422;13.678;2023-01-13T21:39:14;100600.78;;;10.81;58.71
30073;BME280;16897;52.422;13.678;2023-01-13T21:43:16;100589.19;;;10.71;58.58
30073;BME280;16897;52.422;13.678;2023-01-13T21:47:36;100620.84;;;10.81;58.63
30073;BME280;16897;52.422;13.678;2023-01-13T21:51:50;100609.06;;;10.74;58.58
30073;BME280;16897;52.422;13.678;2023-01-13T21:55:52;100631.47;;;10.78;58.56
30073;BME280;16897;52.422;13.678;2023-01-13T21:59:53;100572.41;;;10.45;58.65
30073;BME280;16897;52.422;13.678;2023-01-13T22:03:55;100633.56;;;10.71;58.57
30073;BME280;16897;52.422;13.678;2023-01-13T22:08:14;100631.31;;;10.65;58.63
30073;BME280;16897;52.422;13.678;2023-01-13T22:12:16;100645.88;;;10.69;58.67
30073;BME280;16897;52.422;13.678;2023-01-13T22:16:23;100658.03;;;10.70;58.47
30073;BME280;16897;52.422;13.678;2023-01-13T22:20:25;100633.16;;;10.63;58.68
30073;BME280;16897;52.422;13.678;2023-01-13T22:24:27;100634.38;;;10.57;58.75
30073;BME280;16897;52.422;13.678;2023-01-13T22:28:30;100655.59;;;10.67;58.65
30073;BME280;16897;52.422;13.678;2023-01-13T22:32:41;100655.66;;;10.66;58.73
30073;BME280;16897;52.422;13.678;2023-01-13T22:36:42;100637.22;;;10.53;58.79
30073;BME280;16897;52.422;13.678;2023-01-13T22:40:44;100671.59;;;10.61;58.51
30073;BME280;16897;52.422;13.678;2023-01-13T22:44:45;100686.09;;;10.67;58.50
30073;BME280;16897;52.422;13.678;2023-01-13T22:48:47;100677.56;;;10.63;58.60
30073;BME280;16897;52.422;13.678;2023-01-13T22:52:52;100662.84;;;10.46;58.57
30073;BME280;16897;52.422;13.678;2023-01-13T22:56:53;100666.13;;;10.50;58.67
30073;BME280;16897;52.422;13.678;2023-01-13T23:00:55;100691.81;;;10.57;58.57
30073;BME280;16897;52.422;13.678;2023-01-13T23:04:57;100687.94;;;10.49;58.41
30073;BME280;16897;52.422;13.678;2023-01-13T23:08:59;100707.56;;;10.56;58.57
30073;BME280;16897;52.422;13.678;2023-01-13T23:13:01;100694.78;;;10.51;58.69
30073;BME280;16897;52.422;13.678;2023-01-13T23:17:03;100704.19;;;10.54;58.48
30073;BME280;16897;52.422;13.678;2023-01-13T23:21:08;100697.72;;;10.45;58.60